Time;durP1;ratioP1;P1;durP2;ratioP2;P2;SDS_P1;SDS_P2;PMS_P1;PMS_P2;Temp;Humidity;BMP_temperature;BMP_pressure;BME280_temperature;BME280_humidity;BME280_pressure;Samples;Min_cycle;Max_cycle;Signal;HPM_P1;HPM_P2
2023/08/12 00:00:43;;;;;;;4.07;2.30;;;;;;;;;;5057540;28;20064;-69
2023/08/12 00:03:11;;;;;;;5.03;2.60;;;;;;;;;;5055543;28;21265;-65
2023/08/12 00:05:40;;;;;;;6.28;2.30;;;;;;;;;;5060366;28;20055;-66
2023/08/12 00:08:08;;;;;;;3.78;2.40;;;;;;;;;;5057968;28;20094;-66
2023/08/12 00:10:38;;;;;;;4.18;2.55;;;;;;;;;;5055381;28;20044;-66
2023/08/12 00:13:06;;;;;;;5.07;2.40;;;;;;;;;;5057629;28;20048;-68
2023/08/12 00:15:34;;;;;;;5.13;2.40;;;;;;;;;;5063199;28;20090;-66
2023/08/12 00:18:06;;;;;;;4.50;2.22;;;;;;;;;;5060078;28;20048;-64
2023/08/12 00:20:34;;;;;;;5.00;2.90;;;;;;;;;;5059204;28;20480;-65
2023/08/12 00:23:03;;;;;;;4.43;2.35;;;;;;;;;;5059591;28;20041;-69
2023/08/12 00:25:31;;;;;;;5.95;2.70;;;;;;;;;;5058677;28;20048;-66
2023/08/12 00:28:01;;;;;;;4.88;2.38;;;;;;;;;;5056012;28;20126;-65
2023/08/12 00:30:30;;;;;;;3.45;2.35;;;;;;;;;;5058228;28;20075;-66
2023/08/12 00:32:58;;;;;;;4.00;2.30;;;;;;;;;;5055962;28;20107;-66
2023/08/12 00:35:26;;;;;;;4.22;2.70;;;;;;;;;;5061969;28;20500;-66
2023/08/12 00:37:55;;;;;;;6.63;3.00;;;;;;;;;;5056230;28;20055;-72
2023/08/12 00:40:24;;;;;;;10.00;2.35;;;;;;;;;;5058593;28;20052;-72
2023/08/12 00:42:52;;;;;;;3.30;2.40;;;;;;;;;;5056337;28;20080;-65
2023/08/12 00:45:22;;;;;;;4.93;2.17;;;;;;;;;;5055447;28;20049;-65
2023/08/12 00:47:50;;;;;;;3.83;2.10;;;;;;;;;;5059987;28;20053;-66
2023/08/12 00:50:19;;;;;;;4.30;2.60;;;;;;;;;;5059396;28;20064;-66
2023/08/12 00:52:47;;;;;;;4.20;2.60;;;;;;;;;;5057715;28;20572;-68
2023/08/12 00:55:16;;;;;;;3.63;2.25;;;;;;;;;;5059582;28;20115;-65
2023/08/12 00:57:44;;;;;;;10.23;2.55;;;;;;;;;;5058414;28;20052;-66
2023/08/12 01:00:14;;;;;;;5.60;2.15;;;;;;;;;;5056079;28;20049;-67
2023/08/12 01:02:48;;;;;;;4.38;2.40;;;;;;;;;;5055978;28;20064;-71
2023/08/12 01:05:17;;;;;;;6.05;2.58;;;;;;;;;;5053382;28;20072;-71
2023/08/12 01:07:46;;;;;;;5.22;2.40;;;;;;;;;;5055832;28;20545;-71
2023/08/12 01:10:16;;;;;;;7.10;2.38;;;;;;;;;;5058399;28;20048;-64
2023/08/12 01:12:47;;;;;;;3.33;2.40;;;;;;;;;;5060617;28;20071;-73
2023/08/12 01:15:20;;;;;;;3.13;2.80;;;;;;;;;;5057740;28;20088;-67
2023/08/12 01:17:52;;;;;;;4.15;2.47;;;;;;;;;;5056039;28;20536;-66
2023/08/12 01:20:24;;;;;;;4.50;2.40;;;;;;;;;;5055586;28;20505;-65
2023/08/12 01:22:57;;;;;;;5.05;2.50;;;;;;;;;;5055545;28;20048;-64
2023/08/12 01:25:27;;;;;;;3.75;2.58;;;;;;;;;;5058332;28;20098;-70
2023/08/12 01:27:56;;;;;;;4.18;2.80;;;;;;;;;;5057508;28;21448;-64
2023/08/12 01:30:25;;;;;;;4.75;2.60;;;;;;;;;;5056899;28;20495;-65
2023/08/12 01:32:56;;;;;;;5.10;2.38;;;;;;;;;;5057178;28;20053;-64
2023/08/12 01:35:26;;;;;;;4.20;2.35;;;;;;;;;;5057428;28;20059;-66
2023/08/12 01:37:55;;;;;;;3.92;2.30;;;;;;;;;;5056363;28;20142;-68
2023/08/12 01:40:24;;;;;;;3.78;2.42;;;;;;;;;;5060078;28;20056;-68
2023/08/12 01:42:54;;;;;;;5.28;2.25;;;;;;;;;;5057536;28;20049;-65
2023/08/12 01:45:23;;;;;;;4.20;2.17;;;;;;;;;;5057089;28;20045;-71
2023/08/12 01:47:51;;;;;;;4.53;2.80;;;;;;;;;;5058099;28;20461;-65
2023/08/12 01:50:21;;;;;;;3.53;2.42;;;;;;;;;;5058025;28;20048;-69
2023/08/12 01:52:49;;;;;;;3.85;2.40;;;;;;;;;;5058180;28;20048;-64
2023/08/12 01:55:18;;;;;;;5.72;2.67;;;;;;;;;;5056200;28;20524;-65
2023/08/12 01:57:46;;;;;;;6.47;2.28;;;;;;;;;;5057591;28;20564;-72
2023/08/12 02:00:16;;;;;;;3.22;2.10;;;;;;;;;;5056902;28;20126;-67
2023/08/12 02:02:46;;;;;;;6.97;2.30;;;;;;;;;;5056591;28;20106;-73
2023/08/12 02:05:15;;;;;;;4.53;2.63;;;;;;;;;;5056524;28;20397;-67
2023/08/12 02:07:44;;;;;;;3.97;2.35;;;;;;;;;;5057306;28;20040;-64
2023/08/12 02:10:14;;;;;;;3.95;2.60;;;;;;;;;;5056064;28;20099;-67
2023/08/12 02:12:43;;;;;;;3.90;2.35;;;;;;;;;;5057446;28;20047;-65
2023/08/12 02:15:13;;;;;;;3.00;2.40;;;;;;;;;;5055824;28;20130;-66
2023/08/12 02:17:42;;;;;;;5.00;2.63;;;;;;;;;;5053881;28;20129;-65
2023/08/12 02:20:11;;;;;;;5.60;2.22;;;;;;;;;;5059046;28;20048;-66
2023/08/12 02:22:40;;;;;;;3.67;2.33;;;;;;;;;;5055588;28;20457;-65
2023/08/12 02:25:08;;;;;;;5.25;2.35;;;;;;;;;;5057559;28;20048;-66
2023/08/12 02:27:37;;;;;;;3.80;2.58;;;;;;;;;;5049949;28;20135;-67
2023/08/12 02:30:06;;;;;;;5.22;2.10;;;;;;;;;;5057130;28;20457;-66
2023/08/12 02:32:34;;;;;;;3.38;2.30;;;;;;;;;;5053085;28;20224;-65
2023/08/12 02:35:04;;;;;;;7.47;2.60;;;;;;;;;;5057888;28;20041;-74
2023/08/12 02:37:32;;;;;;;4.38;2.72;;;;;;;;;;5054031;28;20547;-69
2023/08/12 02:40:04;;;;;;;4.82;2.78;;;;;;;;;;5058770;28;20044;-74
2023/08/12 02:42:33;;;;;;;4.47;2.80;;;;;;;;;;5057166;28;20048;-65
2023/08/12 02:45:01;;;;;;;2.95;2.20;;;;;;;;;;5056634;28;20080;-66
2023/08/12 02:47:29;;;;;;;3.25;2.38;;;;;;;;;;5051667;28;20055;-68
2023/08/12 02:49:58;;;;;;;3.90;2.50;;;;;;;;;;5058043;28;20047;-65
2023/08/12 02:52:27;;;;;;;4.70;2.35;;;;;;;;;;5058713;28;20052;-64
2023/08/12 02:54:56;;;;;;;3.13;2.15;;;;;;;;;;5053576;28;20056;-67
2023/08/12 02:57:24;;;;;;;2.92;2.20;;;;;;;;;;5055954;28;20135;-66
2023/08/12 02:59:53;;;;;;;4.13;2.47;;;;;;;;;;5058190;28;20118;-64
2023/08/12 03:02:21;;;;;;;5.00;2.90;;;;;;;;;;5058943;28;20579;-71
2023/08/12 03:04:49;;;;;;;7.03;2.50;;;;;;;;;;5055890;28;20394;-70
2023/08/12 03:07:18;;;;;;;6.35;2.45;;;;;;;;;;5055630;28;20057;-66
2023/08/12 03:09:48;;;;;;;4.93;2.28;;;;;;;;;;5053135;28;20053;-66
2023/08/12 03:12:16;;;;;;;4.38;2.40;;;;;;;;;;5051970;28;20110;-66
2023/08/12 03:14:44;;;;;;;6.50;2.35;;;;;;;;;;5057853;28;20044;-65
2023/08/12 03:17:13;;;;;;;4.30;2.25;;;;;;;;;;5056812;28;20049;-65
2023/08/12 03:19:41;;;;;;;3.92;2.72;;;;;;;;;;5052450;28;20049;-64
2023/08/12 03:22:10;;;;;;;5.03;2.42;;;;;;;;;;5055185;28;20456;-73
2023/08/12 03:24:38;;;;;;;5.47;2.90;;;;;;;;;;5055409;28;20075;-64
2023/08/12 03:27:08;;;;;;;4.30;2.25;;;;;;;;;;5053031;28;20080;-65
2023/08/12 03:29:37;;;;;;;3.55;2.17;;;;;;;;;;5058591;28;20132;-65
2023/08/12 03:32:05;;;;;;;4.88;2.70;;;;;;;;;;5055843;28;20118;-66
2023/08/12 03:34:34;;;;;;;3.55;2.40;;;;;;;;;;5060355;28;20044;-65
2023/08/12 03:37:02;;;;;;;5.15;2.30;;;;;;;;;;5055754;28;20122;-65
2023/08/12 03:39:31;;;;;;;6.47;2.70;;;;;;;;;;5058541;28;20044;-72
2023/08/12 03:41:59;;;;;;;4.47;2.63;;;;;;;;;;5055674;28;20067;-65
2023/08/12 03:44:29;;;;;;;4.40;2.50;;;;;;;;;;5057986;28;20098;-71
2023/08/12 03:46:57;;;;;;;4.43;2.67;;;;;;;;;;5054984;28;20083;-66
2023/08/12 03:49:26;;;;;;;3.85;2.40;;;;;;;;;;5055758;28;20052;-66
2023/08/12 03:51:54;;;;;;;3.70;2.28;;;;;;;;;;5062124;28;20567;-66
2023/08/12 03:54:23;;;;;;;4.82;2.83;;;;;;;;;;5055449;28;20080;-65
2023/08/12 03:56:51;;;;;;;5.00;2.67;;;;;;;;;;5057115;28;20447;-70
2023/08/12 03:59:19;;;;;;;6.45;2.60;;;;;;;;;;5055896;28;20110;-70
2023/08/12 04:01:49;;;;;;;3.53;2.45;;;;;;;;;;5059349;28;20508;-66
2023/08/12 04:04:17;;;;;;;3.22;2.22;;;;;;;;;;5060035;28;20485;-64
2023/08/12 04:06:48;;;;;;;5.10;2.50;;;;;;;;;;5061611;28;20060;-64
2023/08/12 04:09:16;;;;;;;4.13;2.22;;;;;;;;;;5056178;28;20052;-66
2023/08/12 04:11:44;;;;;;;6.28;2.78;;;;;;;;;;5059844;28;20048;-65
2023/08/12 04:14:13;;;;;;;3.65;2.42;;;;;;;;;;5062101;28;20049;-65
2023/08/12 04:16:41;;;;;;;4.38;2.50;;;;;;;;;;5059648;28;20166;-65
2023/08/12 04:19:11;;;;;;;4.20;2.13;;;;;;;;;;5059788;28;20049;-65
2023/08/12 04:21:40;;;;;;;5.32;2.80;;;;;;;;;;5061410;28;20040;-66
2023/08/12 04:24:09;;;;;;;6.20;2.70;;;;;;;;;;5060929;28;20044;-71
2023/08/12 04:26:38;;;;;;;3.58;2.17;;;;;;;;;;5061084;28;20044;-68
2023/08/12 04:29:06;;;;;;;3.03;2.28;;;;;;;;;;5061004;28;20048;-74
2023/08/12 04:31:34;;;;;;;3.40;2.47;;;;;;;;;;5056885;28;20114;-64
2023/08/12 04:34:03;;;;;;;6.30;2.53;;;;;;;;;;5060231;28;20405;-69
2023/08/12 04:36:33;;;;;;;5.78;2.35;;;;;;;;;;5061264;28;20135;-66
2023/08/12 04:39:02;;;;;;;3.63;2.08;;;;;;;;;;5058244;28;20049;-72
2023/08/12 04:41:30;;;;;;;5.05;2.67;;;;;;;;;;5057654;28;20126;-65
2023/08/12 04:43:58;;;;;;;3.55;2.17;;;;;;;;;;5057891;28;20072;-66
2023/08/12 04:46:27;;;;;;;4.20;2.40;;;;;;;;;;5060813;28;20561;-67
2023/08/12 04:48:55;;;;;;;3.92;2.33;;;;;;;;;;5060631;28;20048;-67
2023/08/12 04:51:24;;;;;;;3.47;2.30;;;;;;;;;;5058654;28;20156;-64
2023/08/12 04:53:53;;;;;;;4.90;2.80;;;;;;;;;;5056000;28;20049;-64
2023/08/12 04:56:23;;;;;;;7.03;2.50;;;;;;;;;;5058361;28;20571;-72
2023/08/12 04:58:51;;;;;;;4.70;2.42;;;;;;;;;;5057723;28;20044;-65
2023/08/12 05:01:20;;;;;;;6.10;2.42;;;;;;;;;;5060178;28;20632;-67
2023/08/12 05:03:48;;;;;;;4.18;2.45;;;;;;;;;;5057439;28;20663;-67
2023/08/12 05:06:17;;;;;;;3.92;2.55;;;;;;;;;;5060144;28;20053;-68
2023/08/12 05:08:45;;;;;;;4.65;2.42;;;;;;;;;;5056836;28;20099;-64
2023/08/12 05:11:15;;;;;;;4.32;2.60;;;;;;;;;;5060072;28;20102;-67
2023/08/12 05:13:43;;;;;;;3.13;2.55;;;;;;;;;;5057916;28;20138;-67
2023/08/12 05:16:15;;;;;;;3.20;2.38;;;;;;;;;;5059336;28;20427;-66
2023/08/12 05:18:43;;;;;;;5.68;2.47;;;;;;;;;;5059615;28;20468;-66
2023/08/12 05:21:11;;;;;;;8.50;2.50;;;;;;;;;;5056003;28;20125;-67
2023/08/12 05:23:40;;;;;;;5.35;2.30;;;;;;;;;;5057852;28;20041;-72
2023/08/12 05:26:08;;;;;;;2.60;2.25;;;;;;;;;;5059440;28;20045;-68
2023/08/12 05:28:38;;;;;;;3.65;2.63;;;;;;;;;;5058226;28;20387;-66
2023/08/12 05:31:06;;;;;;;4.63;2.03;;;;;;;;;;5055918;28;20048;-66
2023/08/12 05:33:34;;;;;;;3.70;2.50;;;;;;;;;;5057321;28;20129;-63
2023/08/12 05:36:04;;;;;;;2.90;2.50;;;;;;;;;;5056419;28;20410;-68
2023/08/12 05:38:32;;;;;;;3.65;2.25;;;;;;;;;;5056982;28;20052;-68
2023/08/12 05:41:00;;;;;;;5.40;3.17;;;;;;;;;;5057567;28;20048;-65
2023/08/12 05:43:29;;;;;;;6.30;2.53;;;;;;;;;;5053723;28;20485;-68
2023/08/12 05:45:59;;;;;;;4.75;2.55;;;;;;;;;;5054623;28;20049;-66
2023/08/12 05:48:27;;;;;;;5.40;2.42;;;;;;;;;;5053780;28;20135;-68
2023/08/12 05:50:55;;;;;;;6.45;2.55;;;;;;;;;;5052759;28;20051;-68
2023/08/12 05:53:24;;;;;;;4.25;2.50;;;;;;;;;;5052427;28;20057;-65
2023/08/12 05:55:52;;;;;;;5.43;2.72;;;;;;;;;;5051959;28;20050;-66
2023/08/12 05:58:21;;;;;;;5.65;2.47;;;;;;;;;;5053356;28;20052;-68
2023/08/12 06:00:50;;;;;;;3.92;2.75;;;;;;;;;;5053494;28;20453;-72
2023/08/12 06:03:19;;;;;;;4.30;2.33;;;;;;;;;;5053243;28;20612;-67
2023/08/12 06:05:48;;;;;;;5.57;2.60;;;;;;;;;;5052279;28;20163;-65
2023/08/12 06:08:17;;;;;;;5.60;3.15;;;;;;;;;;5051866;28;20056;-65
2023/08/12 06:10:45;;;;;;;7.97;2.70;;;;;;;;;;5053356;28;20084;-71
2023/08/12 06:13:14;;;;;;;3.70;2.90;;;;;;;;;;5054662;28;20045;-67
2023/08/12 06:15:42;;;;;;;4.10;2.40;;;;;;;;;;5052339;28;20056;-65
2023/08/12 06:18:11;;;;;;;4.05;2.65;;;;;;;;;;5056367;28;20040;-64
2023/08/12 06:20:41;;;;;;;6.35;3.10;;;;;;;;;;5052960;28;20135;-68
2023/08/12 06:23:09;;;;;;;3.95;2.47;;;;;;;;;;5051851;28;20060;-67
2023/08/12 06:25:37;;;;;;;6.00;3.03;;;;;;;;;;5055346;28;20040;-65
2023/08/12 06:28:08;;;;;;;4.70;2.70;;;;;;;;;;5053317;28;20117;-65
2023/08/12 06:30:36;;;;;;;5.90;3.00;;;;;;;;;;5051855;28;20048;-67
2023/08/12 06:33:05;;;;;;;5.50;3.22;;;;;;;;;;5046437;28;20113;-67
2023/08/12 06:35:34;;;;;;;4.45;3.00;;;;;;;;;;5050033;28;20107;-68
2023/08/12 06:38:04;;;;;;;4.75;3.22;;;;;;;;;;5055585;28;20513;-67
2023/08/12 06:40:32;;;;;;;4.88;3.13;;;;;;;;;;5053290;28;20589;-64
2023/08/12 06:43:01;;;;;;;6.65;3.47;;;;;;;;;;5052633;28;20448;-64
2023/08/12 06:45:29;;;;;;;4.53;3.30;;;;;;;;;;5050341;28;20052;-66
2023/08/12 06:47:57;;;;;;;5.35;3.03;;;;;;;;;;5052863;28;20513;-66
2023/08/12 06:50:26;;;;;;;5.30;3.05;;;;;;;;;;5052457;28;20512;-73
2023/08/12 06:52:54;;;;;;;4.72;3.13;;;;;;;;;;5051021;28;20064;-71
2023/08/12 06:55:24;;;;;;;4.28;2.80;;;;;;;;;;5051600;28;20137;-67
2023/08/12 06:57:52;;;;;;;4.32;3.10;;;;;;;;;;5050803;28;20126;-70
2023/08/12 07:00:21;;;;;;;4.85;2.95;;;;;;;;;;5050581;28;20118;-72
2023/08/12 07:02:49;;;;;;;4.15;2.50;;;;;;;;;;5052402;28;20114;-65
2023/08/12 07:05:18;;;;;;;5.70;3.05;;;;;;;;;;5046646;28;20171;-67
2023/08/12 07:07:46;;;;;;;5.32;2.67;;;;;;;;;;5052603;28;20048;-71
2023/08/12 07:10:14;;;;;;;6.97;3.30;;;;;;;;;;5046718;28;20303;-74
2023/08/12 07:12:44;;;;;;;3.63;2.88;;;;;;;;;;5054044;28;20063;-66
2023/08/12 07:15:13;;;;;;;5.65;3.05;;;;;;;;;;5052120;28;20056;-64
2023/08/12 07:17:41;;;;;;;3.83;3.00;;;;;;;;;;5052455;28;20049;-71
2023/08/12 07:20:09;;;;;;;3.85;2.55;;;;;;;;;;5046630;28;20545;-68
2023/08/12 07:22:38;;;;;;;4.00;2.80;;;;;;;;;;5054532;28;20098;-68
2023/08/12 07:25:07;;;;;;;4.47;2.95;;;;;;;;;;5051424;28;20179;-67
2023/08/12 07:27:35;;;;;;;6.00;3.30;;;;;;;;;;5054347;28;20095;-64
2023/08/12 07:30:05;;;;;;;5.35;3.17;;;;;;;;;;5050084;28;20049;-66
2023/08/12 07:32:34;;;;;;;6.57;3.30;;;;;;;;;;5053667;28;20126;-70
2023/08/12 07:35:02;;;;;;;3.85;2.65;;;;;;;;;;5053242;28;20135;-66
2023/08/12 07:37:31;;;;;;;6.82;3.15;;;;;;;;;;5050981;28;20048;-64
2023/08/12 07:39:59;;;;;;;4.40;2.65;;;;;;;;;;5054657;28;20465;-68
2023/08/12 07:42:28;;;;;;;4.68;2.70;;;;;;;;;;5054602;28;20037;-66
2023/08/12 07:44:56;;;;;;;4.03;2.72;;;;;;;;;;5054989;28;20732;-65
2023/08/12 07:47:26;;;;;;;4.88;2.70;;;;;;;;;;5052698;28;20056;-65
2023/08/12 07:49:54;;;;;;;3.88;2.78;;;;;;;;;;5054014;28;20044;-69
2023/08/12 07:52:23;;;;;;;5.18;3.00;;;;;;;;;;5053371;28;20052;-68
2023/08/12 07:54:51;;;;;;;4.18;2.75;;;;;;;;;;5053376;28;20069;-65
2023/08/12 07:57:23;;;;;;;5.28;2.75;;;;;;;;;;5054148;28;20135;-65
2023/08/12 07:59:52;;;;;;;5.65;2.72;;;;;;;;;;5055155;28;20154;-65
2023/08/12 08:02:20;;;;;;;3.35;2.60;;;;;;;;;;5052939;28;20049;-65
2023/08/12 08:04:50;;;;;;;3.90;2.50;;;;;;;;;;5054268;28;20041;-65
2023/08/12 08:07:19;;;;;;;3.65;2.78;;;;;;;;;;5055420;28;20076;-65
2023/08/12 08:09:47;;;;;;;4.97;3.00;;;;;;;;;;5056233;28;20048;-68
2023/08/12 08:12:16;;;;;;;4.93;2.90;;;;;;;;;;5055799;28;20505;-67
2023/08/12 08:14:44;;;;;;;5.03;2.60;;;;;;;;;;5053454;28;20102;-64
2023/08/12 08:17:12;;;;;;;5.05;3.10;;;;;;;;;;5058142;28;20044;-69
2023/08/12 08:19:41;;;;;;;3.67;2.67;;;;;;;;;;5054913;28;20048;-72
2023/08/12 08:22:11;;;;;;;4.07;2.55;;;;;;;;;;5061923;28;20056;-66
2023/08/12 08:24:40;;;;;;;3.55;2.83;;;;;;;;;;5058374;28;20077;-66
2023/08/12 08:27:08;;;;;;;3.63;2.55;;;;;;;;;;5054172;28;20447;-65
2023/08/12 08:29:36;;;;;;;3.70;2.58;;;;;;;;;;5058846;28;20049;-67
2023/08/12 08:32:05;;;;;;;3.17;2.47;;;;;;;;;;5057667;28;20048;-65
2023/08/12 08:34:33;;;;;;;2.83;2.42;;;;;;;;;;5058418;28;20049;-71
2023/08/12 08:37:02;;;;;;;5.32;2.50;;;;;;;;;;5057895;28;20048;-66
2023/08/12 08:39:32;;;;;;;4.47;2.53;;;;;;;;;;5056011;28;20056;-65
2023/08/12 08:42:00;;;;;;;3.95;2.75;;;;;;;;;;5059783;28;20041;-65
2023/08/12 08:44:30;;;;;;;3.88;2.70;;;;;;;;;;5058472;28;20049;-65
2023/08/12 08:47:00;;;;;;;5.88;2.50;;;;;;;;;;5055854;28;20048;-72
2023/08/12 08:49:30;;;;;;;4.03;3.05;;;;;;;;;;5054070;28;20052;-66
2023/08/12 08:51:58;;;;;;;3.78;2.60;;;;;;;;;;5056730;28;20075;-65
2023/08/12 08:54:27;;;;;;;3.58;2.58;;;;;;;;;;5056278;28;20040;-68
2023/08/12 08:56:56;;;;;;;3.03;2.42;;;;;;;;;;5056140;28;20413;-66
2023/08/12 08:59:45;;;;;;;3.70;2.67;;;;;;;;;;5060065;28;20061;-69
2023/08/12 09:02:17;;;;;;;3.58;2.60;;;;;;;;;;5057278;28;20237;-65
2023/08/12 09:04:45;;;;;;;3.75;2.63;;;;;;;;;;5055822;28;20061;-66
2023/08/12 09:07:14;;;;;;;4.97;3.22;;;;;;;;;;5059416;28;20048;-67
2023/08/12 09:09:44;;;;;;;5.10;2.22;;;;;;;;;;5056472;28;20157;-66
2023/08/12 09:12:15;;;;;;;4.75;2.97;;;;;;;;;;5055182;28;20114;-68
2023/08/12 09:14:43;;;;;;;4.80;2.45;;;;;;;;;;5055394;28;20052;-68
2023/08/12 09:17:12;;;;;;;3.92;3.13;;;;;;;;;;5055762;28;20095;-67
2023/08/12 09:19:40;;;;;;;4.38;2.85;;;;;;;;;;5054929;28;20049;-68
2023/08/12 09:22:10;;;;;;;4.78;3.03;;;;;;;;;;5055576;28;20138;-66
2023/08/12 09:24:39;;;;;;;7.32;3.15;;;;;;;;;;5053344;28;20057;-66
2023/08/12 09:27:07;;;;;;;3.70;2.97;;;;;;;;;;5052186;28;20304;-66
2023/08/12 09:29:37;;;;;;;6.85;3.10;;;;;;;;;;5051712;28;20099;-65
2023/08/12 09:32:11;;;;;;;4.25;2.88;;;;;;;;;;5053363;28;20099;-73
2023/08/12 09:34:40;;;;;;;3.72;2.55;;;;;;;;;;5055766;28;20041;-72
2023/08/12 09:37:08;;;;;;;4.40;2.92;;;;;;;;;;5054767;28;20072;-66
2023/08/12 09:39:37;;;;;;;3.63;2.60;;;;;;;;;;5054159;28;20394;-66
2023/08/12 09:42:06;;;;;;;4.63;3.08;;;;;;;;;;5053734;28;20584;-68
2023/08/12 09:44:37;;;;;;;5.50;3.17;;;;;;;;;;5054776;28;20402;-66
2023/08/12 09:47:06;;;;;;;4.35;2.50;;;;;;;;;;5053598;28;20725;-68
2023/08/12 09:49:35;;;;;;;3.58;2.88;;;;;;;;;;5050892;28;20110;-66
2023/08/12 09:52:03;;;;;;;3.72;2.75;;;;;;;;;;5053651;28;20102;-67
2023/08/12 09:54:33;;;;;;;6.40;2.50;;;;;;;;;;5051922;28;20052;-69
2023/08/12 09:57:02;;;;;;;4.00;2.92;;;;;;;;;;5049477;28;20052;-68
2023/08/12 09:59:32;;;;;;;3.47;2.40;;;;;;;;;;5052283;28;20037;-72
2023/08/12 10:02:03;;;;;;;4.35;2.75;;;;;;;;;;5052383;28;20044;-65
2023/08/12 10:04:35;;;;;;;7.43;3.00;;;;;;;;;;5056255;28;20055;-67
2023/08/12 10:07:04;;;;;;;10.75;4.05;;;;;;;;;;5051942;28;20064;-66
2023/08/12 10:09:33;;;;;;;12.38;3.83;;;;;;;;;;5053103;28;20052;-73
2023/08/12 10:12:02;;;;;;;5.78;3.42;;;;;;;;;;5050973;28;20041;-72
2023/08/12 10:14:31;;;;;;;7.03;3.65;;;;;;;;;;5054283;28;20056;-69
2023/08/12 10:16:59;;;;;;;8.35;3.90;;;;;;;;;;5053961;28;20685;-67
2023/08/12 10:19:35;;;;;;;7.38;3.60;;;;;;;;;;5048586;28;20494;-68
2023/08/12 10:22:04;;;;;;;5.03;2.83;;;;;;;;;;5055088;28;20935;-68
2023/08/12 10:24:33;;;;;;;3.30;2.72;;;;;;;;;;5053521;28;20114;-66
2023/08/12 10:27:01;;;;;;;4.90;3.25;;;;;;;;;;5053902;28;20048;-69
2023/08/12 10:29:31;;;;;;;8.57;4.43;;;;;;;;;;5052089;28;20044;-73
2023/08/12 10:32:00;;;;;;;3.88;2.72;;;;;;;;;;5051632;28;20417;-69
2023/08/12 10:34:28;;;;;;;25.42;6.03;;;;;;;;;;5053970;28;20063;-67
2023/08/12 10:36:59;;;;;;;4.40;2.83;;;;;;;;;;5051506;28;20040;-67
2023/08/12 10:39:32;;;;;;;6.27;2.53;;;;;;;;;;5052488;28;20048;-69
2023/08/12 10:42:01;;;;;;;4.88;2.90;;;;;;;;;;5054737;28;20302;-75
2023/08/12 10:44:40;;;;;;;3.83;2.60;;;;;;;;;;5056018;28;20048;-74
2023/08/12 10:47:10;;;;;;;3.83;2.80;;;;;;;;;;5056853;28;20049;-68
2023/08/12 10:49:40;;;;;;;4.03;2.60;;;;;;;;;;5055440;28;20477;-65
2023/08/12 10:52:21;;;;;;;4.40;2.67;;;;;;;;;;5054453;28;20049;-65
2023/08/12 10:54:49;;;;;;;3.42;2.60;;;;;;;;;;5057412;28;20043;-65
2023/08/12 10:57:18;;;;;;;5.63;3.00;;;;;;;;;;5052712;28;20087;-65
2023/08/12 10:59:56;;;;;;;5.57;2.70;;;;;;;;;;5052058;28;20099;-68
2023/08/12 11:02:28;;;;;;;3.55;2.58;;;;;;;;;;5047971;28;20115;-64
2023/08/12 11:04:58;;;;;;;4.68;2.78;;;;;;;;;;5031172;28;20452;-65
2023/08/12 11:07:41;;;;;;;4.10;2.38;;;;;;;;;;5035324;28;20103;-66
2023/08/12 11:10:13;;;;;;;2.72;2.40;;;;;;;;;;5037189;28;20524;-67
2023/08/12 11:12:43;;;;;;;3.63;2.47;;;;;;;;;;5034674;28;20053;-71
2023/08/12 11:15:11;;;;;;;3.42;2.53;;;;;;;;;;5035434;28;20095;-65
2023/08/12 11:17:41;;;;;;;4.55;2.50;;;;;;;;;;5034634;28;20068;-74
2023/08/12 11:20:10;;;;;;;2.95;2.20;;;;;;;;;;5033031;28;20056;-66
2023/08/12 11:22:41;;;;;;;3.75;1.88;;;;;;;;;;5034834;28;20048;-65
2023/08/12 11:25:11;;;;;;;3.30;2.33;;;;;;;;;;5032670;28;20045;-65
2023/08/12 11:27:41;;;;;;;2.97;2.20;;;;;;;;;;5034734;28;20123;-65
2023/08/12 11:30:10;;;;;;;3.03;2.28;;;;;;;;;;5034114;28;20382;-65
2023/08/12 11:32:39;;;;;;;5.13;2.40;;;;;;;;;;5034898;28;20457;-69
2023/08/12 11:35:08;;;;;;;2.47;1.85;;;;;;;;;;5034474;28;20072;-67
2023/08/12 11:37:37;;;;;;;3.58;2.10;;;;;;;;;;5032499;28;20479;-66
2023/08/12 11:40:08;;;;;;;6.43;2.70;;;;;;;;;;5034043;28;20057;-65
2023/08/12 11:42:37;;;;;;;3.33;2.15;;;;;;;;;;5035099;28;20046;-66
2023/08/12 11:45:06;;;;;;;3.33;2.33;;;;;;;;;;5030870;28;20080;-71
2023/08/12 11:47:35;;;;;;;4.47;2.30;;;;;;;;;;5038764;28;20309;-65
2023/08/12 11:50:04;;;;;;;3.42;2.25;;;;;;;;;;5032651;28;20061;-65
2023/08/12 11:52:32;;;;;;;2.95;2.50;;;;;;;;;;5038675;28;20049;-65
2023/08/12 11:55:01;;;;;;;3.40;2.20;;;;;;;;;;5036803;28;20044;-69
2023/08/12 11:57:34;;;;;;;2.17;1.98;;;;;;;;;;5040454;28;20130;-70
2023/08/12 12:00:05;;;;;;;2.80;1.98;;;;;;;;;;5040749;28;20060;-66
2023/08/12 12:02:36;;;;;;;3.10;2.10;;;;;;;;;;5049152;28;20057;-65
2023/08/12 12:05:09;;;;;;;2.30;1.92;;;;;;;;;;5056222;28;20110;-65
2023/08/12 12:07:38;;;;;;;2.90;2.50;;;;;;;;;;5057662;28;20048;-65
2023/08/12 12:10:07;;;;;;;5.10;2.33;;;;;;;;;;5058200;28;20052;-69
2023/08/12 12:12:37;;;;;;;3.70;2.00;;;;;;;;;;5058546;28;20491;-65
2023/08/12 12:15:06;;;;;;;2.15;1.95;;;;;;;;;;5056696;28;20143;-77
2023/08/12 12:17:34;;;;;;;3.80;2.20;;;;;;;;;;5059134;28;20048;-65
2023/08/12 12:20:03;;;;;;;3.47;2.40;;;;;;;;;;5058429;28;20048;-66
2023/08/12 12:22:32;;;;;;;4.30;2.50;;;;;;;;;;5057670;28;20052;-65
2023/08/12 12:25:01;;;;;;;4.43;2.78;;;;;;;;;;5058698;28;20132;-64
2023/08/12 12:27:30;;;;;;;3.13;2.17;;;;;;;;;;5054926;28;20420;-73
2023/08/12 12:29:59;;;;;;;5.00;2.10;;;;;;;;;;5059987;28;20099;-65
2023/08/12 12:32:29;;;;;;;2.58;1.85;;;;;;;;;;5056109;28;20094;-64
2023/08/12 12:34:57;;;;;;;3.65;2.00;;;;;;;;;;5057320;28;20088;-66
2023/08/12 12:37:25;;;;;;;2.35;1.90;;;;;;;;;;5054690;28;20048;-73
2023/08/12 12:39:54;;;;;;;3.65;2.08;;;;;;;;;;5057584;28;20049;-65
2023/08/12 12:42:22;;;;;;;3.50;2.45;;;;;;;;;;5059653;28;20372;-68
2023/08/12 12:44:51;;;;;;;3.83;2.25;;;;;;;;;;5058315;28;20048;-66
2023/08/12 12:47:21;;;;;;;4.40;2.40;;;;;;;;;;5056508;28;20041;-66
2023/08/12 12:49:49;;;;;;;2.22;1.80;;;;;;;;;;5059712;28;20693;-65
2023/08/12 12:52:18;;;;;;;3.90;2.00;;;;;;;;;;5056097;28;20048;-66
2023/08/12 12:54:46;;;;;;;2.65;2.00;;;;;;;;;;5057522;28;20067;-68
2023/08/12 12:57:15;;;;;;;3.42;2.22;;;;;;;;;;5055258;28;20139;-69
2023/08/12 12:59:43;;;;;;;2.72;1.95;;;;;;;;;;5055943;28;20052;-71
2023/08/12 13:02:12;;;;;;;2.40;1.73;;;;;;;;;;5053930;28;20060;-73
2023/08/12 13:04:42;;;;;;;2.85;1.92;;;;;;;;;;5059178;28;20044;-65
2023/08/12 13:07:11;;;;;;;4.70;1.90;;;;;;;;;;5054407;28;20056;-67
2023/08/12 13:09:39;;;;;;;2.38;2.00;;;;;;;;;;5058030;28;20041;-66
2023/08/12 13:12:09;;;;;;;5.63;1.95;;;;;;;;;;5056411;28;20120;-66
2023/08/12 13:14:38;;;;;;;3.15;2.05;;;;;;;;;;5057360;28;20449;-67
2023/08/12 13:17:06;;;;;;;3.00;2.00;;;;;;;;;;5054879;28;20084;-70
2023/08/12 13:19:35;;;;;;;2.28;1.92;;;;;;;;;;5056334;28;20041;-67
2023/08/12 13:22:06;;;;;;;4.07;2.00;;;;;;;;;;5053655;28;20122;-66
2023/08/12 13:24:35;;;;;;;3.63;2.20;;;;;;;;;;5058192;28;20067;-71
2023/08/12 13:27:04;;;;;;;2.60;1.80;;;;;;;;;;5056294;28;20404;-69
2023/08/12 13:29:32;;;;;;;2.20;1.83;;;;;;;;;;5057177;28;20055;-67
2023/08/12 13:32:01;;;;;;;2.88;1.80;;;;;;;;;;5052858;28;20118;-65
2023/08/12 13:34:29;;;;;;;3.15;1.70;;;;;;;;;;5052126;28;20907;-67
2023/08/12 13:36:58;;;;;;;2.47;1.73;;;;;;;;;;5053442;28;20081;-67
2023/08/12 13:39:28;;;;;;;8.30;1.65;;;;;;;;;;5052441;28;20079;-68
2023/08/12 13:41:56;;;;;;;2.67;1.80;;;;;;;;;;5055301;28;20053;-66
2023/08/12 13:44:25;;;;;;;2.30;1.85;;;;;;;;;;5052617;28;20045;-67
2023/08/12 13:46:53;;;;;;;2.70;1.92;;;;;;;;;;5058383;28;20043;-67
2023/08/12 13:49:21;;;;;;;3.05;2.17;;;;;;;;;;5058672;28;20048;-67
2023/08/12 13:51:50;;;;;;;2.80;1.88;;;;;;;;;;5056225;28;20087;-65
2023/08/12 13:54:18;;;;;;;3.75;1.98;;;;;;;;;;5051619;28;20102;-64
2023/08/12 13:56:48;;;;;;;3.80;2.10;;;;;;;;;;5050728;28;20052;-67
2023/08/12 13:59:16;;;;;;;3.70;2.10;;;;;;;;;;5051310;28;20052;-69
2023/08/12 14:01:45;;;;;;;6.18;2.03;;;;;;;;;;5056105;28;20048;-66
2023/08/12 14:04:13;;;;;;;4.25;1.80;;;;;;;;;;5047914;28;20118;-68
2023/08/12 14:06:43;;;;;;;2.55;2.00;;;;;;;;;;5056182;28;20452;-65
2023/08/12 14:09:13;;;;;;;3.88;2.40;;;;;;;;;;5055294;28;20102;-64
2023/08/12 14:11:42;;;;;;;3.13;2.10;;;;;;;;;;5052189;28;20144;-66
2023/08/12 14:14:12;;;;;;;2.90;1.77;;;;;;;;;;5054654;28;20516;-66
2023/08/12 14:16:40;;;;;;;5.75;1.92;;;;;;;;;;5057377;28;20076;-65
2023/08/12 14:19:08;;;;;;;2.83;2.05;;;;;;;;;;5053955;28;20049;-64
2023/08/12 14:21:37;;;;;;;2.65;1.77;;;;;;;;;;5056912;28;20040;-65
2023/08/12 14:24:05;;;;;;;3.75;1.90;;;;;;;;;;5055781;28;20075;-70
2023/08/12 14:26:34;;;;;;;1.67;1.58;;;;;;;;;;5056637;28;20119;-70
2023/08/12 14:29:02;;;;;;;3.45;2.38;;;;;;;;;;5055418;28;20412;-64
2023/08/12 14:31:32;;;;;;;2.53;1.98;;;;;;;;;;5054061;28;20424;-67
2023/08/12 14:34:01;;;;;;;3.33;2.00;;;;;;;;;;5052007;28;20051;-65
2023/08/12 14:36:29;;;;;;;2.80;1.65;;;;;;;;;;5052829;28;20055;-63
2023/08/12 14:38:58;;;;;;;3.38;1.95;;;;;;;;;;5053710;28;20594;-64
2023/08/12 14:41:26;;;;;;;2.83;2.20;;;;;;;;;;5052551;28;20728;-65
2023/08/12 14:43:54;;;;;;;4.18;2.00;;;;;;;;;;5051357;28;20049;-65
2023/08/12 14:46:23;;;;;;;2.88;2.10;;;;;;;;;;5052681;28;20078;-64
2023/08/12 14:48:53;;;;;;;5.43;2.20;;;;;;;;;;5056782;28;20044;-67
2023/08/12 14:51:21;;;;;;;3.35;2.20;;;;;;;;;;5051364;28;20234;-65
2023/08/12 14:53:50;;;;;;;4.20;2.55;;;;;;;;;;5053554;28;20060;-65